sensor_id;sensor_type;location;lat;lon;timestamp;P1;durP1;ratioP1;P2;durP2;ratioP2
28022;SDS011;67403;50.104;8.758;2023-02-13T00:01:34;11.70;;;5.05;;
28022;SDS011;67403;50.104;8.758;2023-02-13T00:04:01;10.10;;;5.63;;
28022;SDS011;67403;50.104;8.758;2023-02-13T00:06:28;10.55;;;5.38;;
28022;SDS011;67403;50.104;8.758;2023-02-13T00:08:55;11.75;;;6.28;;
28022;SDS011;67403;50.104;8.758;2023-02-13T00:11:23;11.60;;;5.68;;
28022;SDS011;67403;50.104;8.758;2023-02-13T00:13:50;11.90;;;5.65;;
28022;SDS011;67403;50.104;8.758;2023-02-13T00:16:17;10.68;;;4.95;;
28022;SDS011;67403;50.104;8.758;2023-02-13T00:18:44;9.30;;;4.90;;
28022;SDS011;67403;50.104;8.758;2023-02-13T00:21:11;9.07;;;5.28;;
28022;SDS011;67403;50.104;8.758;2023-02-13T00:23:40;10.75;;;5.60;;
28022;SDS011;67403;50.104;8.758;2023-02-13T00:26:07;12.68;;;5.78;;
28022;SDS011;67403;50.104;8.758;2023-02-13T00:28:37;13.57;;;6.75;;
28022;SDS011;67403;50.104;8.758;2023-02-13T00:31:05;10.98;;;5.60;;
28022;SDS011;67403;50.104;8.758;2023-02-13T00:33:33;11.05;;;5.22;;
28022;SDS011;67403;50.104;8.758;2023-02-13T00:36:01;13.25;;;5.68;;
28022;SDS011;67403;50.104;8.758;2023-02-13T00:38:29;10.35;;;5.45;;
28022;SDS011;67403;50.104;8.758;2023-02-13T00:40:56;10.80;;;6.13;;
28022;SDS011;67403;50.104;8.758;2023-02-13T00:43:23;13.50;;;6.53;;
28022;SDS011;67403;50.104;8.758;2023-02-13T00:45:51;11.05;;;5.22;;
28022;SDS011;67403;50.104;8.758;2023-02-13T00:48:18;13.50;;;6.38;;
28022;SDS011;67403;50.104;8.758;2023-02-13T00:50:45;11.85;;;5.13;;
28022;SDS011;67403;50.104;8.758;2023-02-13T00:53:12;11.43;;;5.93;;
28022;SDS011;67403;50.104;8.758;2023-02-13T00:55:39;11.98;;;6.10;;
28022;SDS011;67403;50.104;8.758;2023-02-13T00:58:06;13.65;;;6.32;;
28022;SDS011;67403;50.104;8.758;2023-02-13T01:00:33;12.90;;;6.25;;
28022;SDS011;67403;50.104;8.758;2023-02-13T01:03:01;9.90;;;5.25;;
28022;SDS011;67403;50.104;8.758;2023-02-13T01:05:28;13.93;;;6.20;;
28022;SDS011;67403;50.104;8.758;2023-02-13T01:07:55;12.30;;;6.50;;
28022;SDS011;67403;50.104;8.758;2023-02-13T01:10:22;13.45;;;6.63;;
28022;SDS011;67403;50.104;8.758;2023-02-13T01:12:49;12.75;;;6.80;;
28022;SDS011;67403;50.104;8.758;2023-02-13T01:15:16;14.35;;;6.35;;
28022;SDS011;67403;50.104;8.758;2023-02-13T01:17:43;12.95;;;6.00;;
28022;SDS011;67403;50.104;8.758;2023-02-13T01:20:12;12.45;;;5.57;;
28022;SDS011;67403;50.104;8.758;2023-02-13T01:22:40;11.88;;;6.25;;
28022;SDS011;67403;50.104;8.758;2023-02-13T01:25:08;11.90;;;6.03;;
28022;SDS011;67403;50.104;8.758;2023-02-13T01:27:35;10.57;;;6.15;;
28022;SDS011;67403;50.104;8.758;2023-02-13T01:30:03;13.02;;;6.50;;
28022;SDS011;67403;50.104;8.758;2023-02-13T01:32:34;9.50;;;5.65;;
28022;SDS011;67403;50.104;8.758;2023-02-13T01:35:01;12.85;;;6.00;;
28022;SDS011;67403;50.104;8.758;2023-02-13T01:37:30;13.02;;;6.65;;
28022;SDS011;67403;50.104;8.758;2023-02-13T01:39:57;11.98;;;5.85;;
28022;SDS011;67403;50.104;8.758;2023-02-13T01:42:24;11.55;;;5.60;;
28022;SDS011;67403;50.104;8.758;2023-02-13T01:44:53;15.55;;;7.30;;
28022;SDS011;67403;50.104;8.758;2023-02-13T01:47:23;14.93;;;7.30;;
28022;SDS011;67403;50.104;8.758;2023-02-13T01:49:55;16.23;;;6.30;;
28022;SDS011;67403;50.104;8.758;2023-02-13T01:52:29;16.85;;;7.40;;
28022;SDS011;67403;50.104;8.758;2023-02-13T01:54:57;17.33;;;7.07;;
28022;SDS011;67403;50.104;8.758;2023-02-13T01:57:24;17.80;;;7.20;;
28022;SDS011;67403;50.104;8.758;2023-02-13T01:59:56;14.85;;;6.45;;
28022;SDS011;67403;50.104;8.758;2023-02-13T02:02:28;11.35;;;7.32;;
28022;SDS011;67403;50.104;8.758;2023-02-13T02:04:59;16.58;;;7.47;;
28022;SDS011;67403;50.104;8.758;2023-02-13T02:07:28;15.57;;;7.68;;
28022;SDS011;67403;50.104;8.758;2023-02-13T02:09:59;19.90;;;8.32;;
28022;SDS011;67403;50.104;8.758;2023-02-13T02:12:30;15.57;;;7.15;;
28022;SDS011;67403;50.104;8.758;2023-02-13T02:15:01;16.02;;;6.15;;
28022;SDS011;67403;50.104;8.758;2023-02-13T02:17:30;17.42;;;8.82;;
28022;SDS011;67403;50.104;8.758;2023-02-13T02:19:59;22.38;;;8.43;;
28022;SDS011;67403;50.104;8.758;2023-02-13T02:22:49;23.00;;;8.20;;
28022;SDS011;67403;50.104;8.758;2023-02-13T02:31:53;17.88;;;8.13;;
28022;SDS011;67403;50.104;8.758;2023-02-13T02:34:45;17.95;;;8.43;;
28022;SDS011;67403;50.104;8.758;2023-02-13T02:37:23;17.30;;;6.90;;
28022;SDS011;67403;50.104;8.758;2023-02-13T02:40:05;19.00;;;8.23;;
28022;SDS011;67403;50.104;8.758;2023-02-13T02:42:42;17.42;;;7.05;;
28022;SDS011;67403;50.104;8.758;2023-02-13T02:45:24;17.13;;;7.47;;
28022;SDS011;67403;50.104;8.758;2023-02-13T02:48:02;15.18;;;7.53;;
28022;SDS011;67403;50.104;8.758;2023-02-13T02:50:50;15.85;;;7.65;;
28022;SDS011;67403;50.104;8.758;2023-02-13T02:55:53;17.63;;;8.05;;
28022;SDS011;67403;50.104;8.758;2023-02-13T02:58:29;20.48;;;7.63;;
28022;SDS011;67403;50.104;8.758;2023-02-13T03:01:19;16.92;;;7.93;;
28022;SDS011;67403;50.104;8.758;2023-02-13T03:04:09;21.08;;;9.15;;
28022;SDS011;67403;50.104;8.758;2023-02-13T03:07:02;17.65;;;7.53;;
28022;SDS011;67403;50.104;8.758;2023-02-13T03:12:20;16.23;;;7.57;;
28022;SDS011;67403;50.104;8.758;2023-02-13T03:15:14;20.73;;;8.93;;
28022;SDS011;67403;50.104;8.758;2023-02-13T03:17:41;22.65;;;8.32;;
28022;SDS011;67403;50.104;8.758;2023-02-13T03:20:29;20.40;;;8.40;;
28022;SDS011;67403;50.104;8.758;2023-02-13T03:23:25;18.80;;;8.30;;
28022;SDS011;67403;50.104;8.758;2023-02-13T03:29:00;19.75;;;8.45;;
28022;SDS011;67403;50.104;8.758;2023-02-13T03:31:52;23.15;;;10.05;;
28022;SDS011;67403;50.104;8.758;2023-02-13T03:34:26;22.63;;;9.43;;
28022;SDS011;67403;50.104;8.758;2023-02-13T03:37:19;24.20;;;9.43;;
28022;SDS011;67403;50.104;8.758;2023-02-13T03:40:11;22.73;;;9.63;;
28022;SDS011;67403;50.104;8.758;2023-02-13T03:42:43;23.55;;;9.88;;
28022;SDS011;67403;50.104;8.758;2023-02-13T03:45:13;19.05;;;8.25;;
28022;SDS011;67403;50.104;8.758;2023-02-13T03:48:03;20.38;;;8.30;;
28022;SDS011;67403;50.104;8.758;2023-02-13T03:50:34;19.45;;;8.90;;
28022;SDS011;67403;50.104;8.758;2023-02-13T03:53:04;17.98;;;8.52;;
28022;SDS011;67403;50.104;8.758;2023-02-13T03:55:33;20.45;;;8.85;;
28022;SDS011;67403;50.104;8.758;2023-02-13T03:58:20;19.95;;;8.10;;
28022;SDS011;67403;50.104;8.758;2023-02-13T04:01:07;23.73;;;9.05;;
28022;SDS011;67403;50.104;8.758;2023-02-13T04:03:42;17.55;;;8.85;;
28022;SDS011;67403;50.104;8.758;2023-02-13T04:06:14;28.10;;;10.13;;
28022;SDS011;67403;50.104;8.758;2023-02-13T04:08:46;22.52;;;8.20;;
28022;SDS011;67403;50.104;8.758;2023-02-13T04:11:14;17.75;;;7.93;;
28022;SDS011;67403;50.104;8.758;2023-02-13T04:14:06;20.80;;;8.25;;
28022;SDS011;67403;50.104;8.758;2023-02-13T04:16:57;20.83;;;8.35;;
28022;SDS011;67403;50.104;8.758;2023-02-13T04:19:49;17.88;;;8.68;;
28022;SDS011;67403;50.104;8.758;2023-02-13T04:22:40;18.52;;;8.50;;
28022;SDS011;67403;50.104;8.758;2023-02-13T04:25:10;18.17;;;7.57;;
28022;SDS011;67403;50.104;8.758;2023-02-13T04:27:38;20.50;;;8.23;;
28022;SDS011;67403;50.104;8.758;2023-02-13T04:30:06;25.70;;;10.48;;
28022;SDS011;67403;50.104;8.758;2023-02-13T04:32:34;18.02;;;7.97;;
28022;SDS011;67403;50.104;8.758;2023-02-13T04:35:01;24.45;;;10.00;;
28022;SDS011;67403;50.104;8.758;2023-02-13T04:37:28;28.35;;;10.80;;
28022;SDS011;67403;50.104;8.758;2023-02-13T04:39:55;26.27;;;9.95;;
28022;SDS011;67403;50.104;8.758;2023-02-13T04:42:24;24.05;;;11.05;;
28022;SDS011;67403;50.104;8.758;2023-02-13T04:44:50;27.05;;;10.77;;
28022;SDS011;67403;50.104;8.758;2023-02-13T04:47:17;21.92;;;10.40;;
28022;SDS011;67403;50.104;8.758;2023-02-13T04:49:44;24.30;;;11.23;;
28022;SDS011;67403;50.104;8.758;2023-02-13T04:52:11;22.05;;;9.45;;
28022;SDS011;67403;50.104;8.758;2023-02-13T04:54:39;26.25;;;10.65;;
28022;SDS011;67403;50.104;8.758;2023-02-13T04:57:06;25.80;;;10.48;;
28022;SDS011;67403;50.104;8.758;2023-02-13T04:59:34;26.55;;;11.50;;
28022;SDS011;67403;50.104;8.758;2023-02-13T05:02:01;21.75;;;10.00;;
28022;SDS011;67403;50.104;8.758;2023-02-13T05:04:28;21.00;;;9.18;;
28022;SDS011;67403;50.104;8.758;2023-02-13T05:06:55;22.80;;;9.50;;
28022;SDS011;67403;50.104;8.758;2023-02-13T05:09:22;25.20;;;9.07;;
28022;SDS011;67403;50.104;8.758;2023-02-13T05:11:50;24.80;;;10.32;;
28022;SDS011;67403;50.104;8.758;2023-02-13T05:14:17;24.45;;;9.80;;
28022;SDS011;67403;50.104;8.758;2023-02-13T05:16:46;25.77;;;11.15;;
28022;SDS011;67403;50.104;8.758;2023-02-13T05:19:14;27.30;;;9.93;;
28022;SDS011;67403;50.104;8.758;2023-02-13T05:21:40;24.35;;;10.02;;
28022;SDS011;67403;50.104;8.758;2023-02-13T05:24:25;26.27;;;9.52;;
28022;SDS011;67403;50.104;8.758;2023-02-13T05:26:52;23.90;;;9.07;;
28022;SDS011;67403;50.104;8.758;2023-02-13T05:29:19;26.08;;;10.35;;
28022;SDS011;67403;50.104;8.758;2023-02-13T05:31:48;20.05;;;9.15;;
28022;SDS011;67403;50.104;8.758;2023-02-13T05:36:44;26.80;;;11.27;;
28022;SDS011;67403;50.104;8.758;2023-02-13T05:39:11;25.25;;;10.48;;
28022;SDS011;67403;50.104;8.758;2023-02-13T05:41:39;25.25;;;10.43;;
28022;SDS011;67403;50.104;8.758;2023-02-13T05:44:06;24.27;;;9.98;;
28022;SDS011;67403;50.104;8.758;2023-02-13T05:46:33;24.10;;;10.25;;
28022;SDS011;67403;50.104;8.758;2023-02-13T05:49:03;22.00;;;9.82;;
28022;SDS011;67403;50.104;8.758;2023-02-13T05:51:30;32.53;;;11.50;;
28022;SDS011;67403;50.104;8.758;2023-02-13T05:53:57;23.65;;;10.65;;
28022;SDS011;67403;50.104;8.758;2023-02-13T05:56:24;26.55;;;11.10;;
28022;SDS011;67403;50.104;8.758;2023-02-13T05:58:51;27.55;;;10.77;;
28022;SDS011;67403;50.104;8.758;2023-02-13T06:01:19;26.25;;;10.65;;
28022;SDS011;67403;50.104;8.758;2023-02-13T06:03:46;25.23;;;9.60;;
28022;SDS011;67403;50.104;8.758;2023-02-13T06:06:15;24.83;;;10.73;;
28022;SDS011;67403;50.104;8.758;2023-02-13T06:08:42;26.30;;;10.63;;
28022;SDS011;67403;50.104;8.758;2023-02-13T06:11:10;24.95;;;9.00;;
28022;SDS011;67403;50.104;8.758;2023-02-13T06:13:37;25.33;;;9.50;;
28022;SDS011;67403;50.104;8.758;2023-02-13T06:16:05;28.50;;;11.13;;
28022;SDS011;67403;50.104;8.758;2023-02-13T06:18:32;19.17;;;9.40;;
28022;SDS011;67403;50.104;8.758;2023-02-13T06:20:59;23.02;;;9.73;;
28022;SDS011;67403;50.104;8.758;2023-02-13T06:23:28;21.05;;;8.82;;
28022;SDS011;67403;50.104;8.758;2023-02-13T06:25:55;20.23;;;10.00;;
28022;SDS011;67403;50.104;8.758;2023-02-13T06:28:26;22.52;;;9.32;;
28022;SDS011;67403;50.104;8.758;2023-02-13T06:30:53;26.20;;;11.68;;
28022;SDS011;67403;50.104;8.758;2023-02-13T06:33:20;29.95;;;10.88;;
28022;SDS011;67403;50.104;8.758;2023-02-13T06:35:47;27.42;;;11.07;;
28022;SDS011;67403;50.104;8.758;2023-02-13T06:38:14;25.67;;;10.57;;
28022;SDS011;67403;50.104;8.758;2023-02-13T06:40:44;30.05;;;10.32;;
28022;SDS011;67403;50.104;8.758;2023-02-13T06:43:11;23.40;;;10.20;;
28022;SDS011;67403;50.104;8.758;2023-02-13T06:45:38;28.05;;;11.93;;
28022;SDS011;67403;50.104;8.758;2023-02-13T06:48:05;24.50;;;10.65;;
28022;SDS011;67403;50.104;8.758;2023-02-13T06:50:33;21.42;;;11.18;;
28022;SDS011;67403;50.104;8.758;2023-02-13T06:53:00;25.25;;;11.15;;
28022;SDS011;67403;50.104;8.758;2023-02-13T06:55:27;24.40;;;10.73;;
28022;SDS011;67403;50.104;8.758;2023-02-13T06:57:55;31.98;;;12.55;;
28022;SDS011;67403;50.104;8.758;2023-02-13T07:00:22;28.08;;;11.95;;
28022;SDS011;67403;50.104;8.758;2023-02-13T07:02:50;27.98;;;11.40;;
28022;SDS011;67403;50.104;8.758;2023-02-13T07:05:17;23.95;;;11.27;;
28022;SDS011;67403;50.104;8.758;2023-02-13T07:07:44;29.30;;;11.55;;
28022;SDS011;67403;50.104;8.758;2023-02-13T07:10:11;32.17;;;12.35;;
28022;SDS011;67403;50.104;8.758;2023-02-13T07:12:39;24.70;;;10.95;;
28022;SDS011;67403;50.104;8.758;2023-02-13T07:15:08;26.40;;;11.48;;
28022;SDS011;67403;50.104;8.758;2023-02-13T07:17:35;38.78;;;11.77;;
28022;SDS011;67403;50.104;8.758;2023-02-13T07:20:02;30.60;;;11.57;;
28022;SDS011;67403;50.104;8.758;2023-02-13T07:22:30;29.63;;;10.80;;
28022;SDS011;67403;50.104;8.758;2023-02-13T07:24:58;47.28;;;15.45;;
28022;SDS011;67403;50.104;8.758;2023-02-13T07:27:25;31.48;;;11.88;;
28022;SDS011;67403;50.104;8.758;2023-02-13T07:29:53;30.02;;;11.05;;
28022;SDS011;67403;50.104;8.758;2023-02-13T07:32:23;28.10;;;10.80;;
28022;SDS011;67403;50.104;8.758;2023-02-13T07:34:50;26.20;;;11.20;;
28022;SDS011;67403;50.104;8.758;2023-02-13T07:37:17;29.33;;;12.20;;
28022;SDS011;67403;50.104;8.758;2023-02-13T07:39:44;29.75;;;12.55;;
28022;SDS011;67403;50.104;8.758;2023-02-13T07:42:11;28.25;;;12.80;;
28022;SDS011;67403;50.104;8.758;2023-02-13T07:44:38;28.60;;;12.88;;
28022;SDS011;67403;50.104;8.758;2023-02-13T07:47:05;30.67;;;11.88;;
28022;SDS011;67403;50.104;8.758;2023-02-13T07:49:33;27.20;;;11.38;;
28022;SDS011;67403;50.104;8.758;2023-02-13T07:52:01;30.10;;;12.03;;
28022;SDS011;67403;50.104;8.758;2023-02-13T07:54:28;37.60;;;12.27;;
28022;SDS011;67403;50.104;8.758;2023-02-13T07:56:55;31.75;;;11.85;;
28022;SDS011;67403;50.104;8.758;2023-02-13T07:59:22;30.02;;;12.50;;
28022;SDS011;67403;50.104;8.758;2023-02-13T08:01:49;28.08;;;12.73;;
28022;SDS011;67403;50.104;8.758;2023-02-13T08:04:16;32.45;;;11.57;;
28022;SDS011;67403;50.104;8.758;2023-02-13T08:06:45;31.08;;;11.07;;
28022;SDS011;67403;50.104;8.758;2023-02-13T08:09:16;24.95;;;11.73;;
28022;SDS011;67403;50.104;8.758;2023-02-13T08:12:02;28.70;;;11.10;;
28022;SDS011;67403;50.104;8.758;2023-02-13T08:14:31;28.27;;;11.20;;
28022;SDS011;67403;50.104;8.758;2023-02-13T08:16:58;37.80;;;12.45;;
28022;SDS011;67403;50.104;8.758;2023-02-13T08:19:26;26.33;;;10.77;;
28022;SDS011;67403;50.104;8.758;2023-02-13T08:21:54;31.02;;;11.18;;
28022;SDS011;67403;50.104;8.758;2023-02-13T08:24:22;31.48;;;11.10;;
28022;SDS011;67403;50.104;8.758;2023-02-13T08:26:49;26.77;;;10.02;;
28022;SDS011;67403;50.104;8.758;2023-02-13T08:29:15;30.40;;;10.38;;
28022;SDS011;67403;50.104;8.758;2023-02-13T08:31:42;24.40;;;9.98;;
28022;SDS011;67403;50.104;8.758;2023-02-13T08:34:09;27.42;;;11.35;;
28022;SDS011;67403;50.104;8.758;2023-02-13T08:36:36;24.30;;;10.30;;
28022;SDS011;67403;50.104;8.758;2023-02-13T08:39:04;31.73;;;11.50;;
28022;SDS011;67403;50.104;8.758;2023-02-13T08:41:31;29.92;;;10.07;;
28022;SDS011;67403;50.104;8.758;2023-02-13T08:43:58;25.52;;;10.02;;
28022;SDS011;67403;50.104;8.758;2023-02-13T08:46:25;23.58;;;10.02;;
28022;SDS011;67403;50.104;8.758;2023-02-13T08:48:53;23.58;;;10.70;;
28022;SDS011;67403;50.104;8.758;2023-02-13T08:51:20;29.23;;;11.10;;
28022;SDS011;67403;50.104;8.758;2023-02-13T08:53:47;26.63;;;10.23;;
28022;SDS011;67403;50.104;8.758;2023-02-13T08:56:15;18.45;;;9.50;;
28022;SDS011;67403;50.104;8.758;2023-02-13T08:58:42;25.17;;;10.35;;
28022;SDS011;67403;50.104;8.758;2023-02-13T09:01:09;27.88;;;10.32;;
28022;SDS011;67403;50.104;8.758;2023-02-13T09:03:36;23.33;;;10.13;;
28022;SDS011;67403;50.104;8.758;2023-02-13T09:06:03;26.67;;;10.77;;
28022;SDS011;67403;50.104;8.758;2023-02-13T09:08:30;28.48;;;10.60;;
28022;SDS011;67403;50.104;8.758;2023-02-13T09:10:58;25.50;;;10.50;;
28022;SDS011;67403;50.104;8.758;2023-02-13T09:13:27;26.23;;;10.82;;
28022;SDS011;67403;50.104;8.758;2023-02-13T09:15:57;23.67;;;9.95;;
28022;SDS011;67403;50.104;8.758;2023-02-13T09:20:56;22.90;;;11.00;;
28022;SDS011;67403;50.104;8.758;2023-02-13T09:23:24;22.80;;;9.77;;
28022;SDS011;67403;50.104;8.758;2023-02-13T09:25:51;28.05;;;11.10;;
28022;SDS011;67403;50.104;8.758;2023-02-13T09:28:18;30.38;;;11.73;;
28022;SDS011;67403;50.104;8.758;2023-02-13T09:30:46;28.02;;;10.75;;
28022;SDS011;67403;50.104;8.758;2023-02-13T09:33:14;28.08;;;11.07;;
28022;SDS011;67403;50.104;8.758;2023-02-13T09:35:41;24.35;;;10.50;;
28022;SDS011;67403;50.104;8.758;2023-02-13T09:38:09;25.17;;;11.45;;
28022;SDS011;67403;50.104;8.758;2023-02-13T09:40:38;27.13;;;11.40;;
28022;SDS011;67403;50.104;8.758;2023-02-13T09:43:12;28.73;;;10.70;;
28022;SDS011;67403;50.104;8.758;2023-02-13T09:45:42;22.60;;;9.65;;
28022;SDS011;67403;50.104;8.758;2023-02-13T09:48:14;26.67;;;11.15;;
28022;SDS011;67403;50.104;8.758;2023-02-13T09:50:49;23.77;;;10.10;;
28022;SDS011;67403;50.104;8.758;2023-02-13T09:53:19;24.98;;;10.15;;
28022;SDS011;67403;50.104;8.758;2023-02-13T09:55:50;25.00;;;10.63;;
28022;SDS011;67403;50.104;8.758;2023-02-13T09:58:36;23.52;;;10.70;;
28022;SDS011;67403;50.104;8.758;2023-02-13T10:01:13;24.33;;;10.23;;
28022;SDS011;67403;50.104;8.758;2023-02-13T10:03:47;25.67;;;10.70;;
28022;SDS011;67403;50.104;8.758;2023-02-13T10:06:18;23.20;;;10.85;;
28022;SDS011;67403;50.104;8.758;2023-02-13T10:09:08;21.88;;;9.50;;
28022;SDS011;67403;50.104;8.758;2023-02-13T10:11:55;20.02;;;8.75;;
28022;SDS011;67403;50.104;8.758;2023-02-13T10:14:34;15.48;;;7.65;;
28022;SDS011;67403;50.104;8.758;2023-02-13T10:17:09;20.98;;;9.07;;
28022;SDS011;67403;50.104;8.758;2023-02-13T10:19:41;19.70;;;8.73;;
28022;SDS011;67403;50.104;8.758;2023-02-13T10:22:13;18.13;;;8.15;;
28022;SDS011;67403;50.104;8.758;2023-02-13T10:27:16;15.88;;;7.00;;
28022;SDS011;67403;50.104;8.758;2023-02-13T10:29:47;18.77;;;7.88;;
28022;SDS011;67403;50.104;8.758;2023-02-13T10:32:41;14.10;;;6.85;;
28022;SDS011;67403;50.104;8.758;2023-02-13T10:35:22;12.55;;;7.30;;
28022;SDS011;67403;50.104;8.758;2023-02-13T10:40:21;11.52;;;6.07;;
28022;SDS011;67403;50.104;8.758;2023-02-13T10:42:54;13.90;;;7.97;;
28022;SDS011;67403;50.104;8.758;2023-02-13T10:45:39;13.90;;;7.72;;
28022;SDS011;67403;50.104;8.758;2023-02-13T10:48:22;13.30;;;7.25;;
28022;SDS011;67403;50.104;8.758;2023-02-13T10:51:00;13.75;;;6.82;;
28022;SDS011;67403;50.104;8.758;2023-02-13T10:53:38;13.13;;;6.82;;
28022;SDS011;67403;50.104;8.758;2023-02-13T10:56:18;13.52;;;7.18;;
28022;SDS011;67403;50.104;8.758;2023-02-13T10:58:53;14.68;;;7.13;;
28022;SDS011;67403;50.104;8.758;2023-02-13T11:01:31;21.67;;;9.80;;
28022;SDS011;67403;50.104;8.758;2023-02-13T11:04:06;12.10;;;7.22;;
28022;SDS011;67403;50.104;8.758;2023-02-13T11:06:36;13.30;;;6.93;;
28022;SDS011;67403;50.104;8.758;2023-02-13T11:09:07;11.48;;;6.55;;
28022;SDS011;67403;50.104;8.758;2023-02-13T11:11:38;12.80;;;6.75;;
28022;SDS011;67403;50.104;8.758;2023-02-13T11:14:07;10.90;;;6.70;;
28022;SDS011;67403;50.104;8.758;2023-02-13T11:16:40;9.18;;;5.72;;
28022;SDS011;67403;50.104;8.758;2023-02-13T11:19:15;10.40;;;6.57;;
28022;SDS011;67403;50.104;8.758;2023-02-13T11:21:45;10.98;;;6.50;;
28022;SDS011;67403;50.104;8.758;2023-02-13T11:24:17;10.48;;;6.72;;
28022;SDS011;67403;50.104;8.758;2023-02-13T11:26:49;9.52;;;6.03;;
28022;SDS011;67403;50.104;8.758;2023-02-13T11:29:19;9.82;;;6.03;;
28022;SDS011;67403;50.104;8.758;2023-02-13T11:32:00;10.20;;;6.32;;
28022;SDS011;67403;50.104;8.758;2023-02-13T11:34:32;8.43;;;5.60;;
28022;SDS011;67403;50.104;8.758;2023-02-13T11:39:51;7.32;;;5.65;;
28022;SDS011;67403;50.104;8.758;2023-02-13T11:42:20;9.15;;;5.85;;
28022;SDS011;67403;50.104;8.758;2023-02-13T11:44:54;6.93;;;5.63;;
28022;SDS011;67403;50.104;8.758;2023-02-13T11:47:35;7.30;;;5.57;;
28022;SDS011;67403;50.104;8.758;2023-02-13T11:50:05;6.35;;;5.30;;
28022;SDS011;67403;50.104;8.758;2023-02-13T11:52:51;6.47;;;4.60;;
28022;SDS011;67403;50.104;8.758;2023-02-13T11:55:27;5.63;;;4.93;;
28022;SDS011;67403;50.104;8.758;2023-02-13T11:57:56;8.23;;;5.45;;
28022;SDS011;67403;50.104;8.758;2023-02-13T12:00:27;6.20;;;5.15;;
28022;SDS011;67403;50.104;8.758;2023-02-13T12:02:59;5.85;;;4.90;;
28022;SDS011;67403;50.104;8.758;2023-02-13T12:05:26;6.13;;;5.05;;
28022;SDS011;67403;50.104;8.758;2023-02-13T12:07:56;5.97;;;5.15;;
28022;SDS011;67403;50.104;8.758;2023-02-13T12:10:26;6.72;;;4.93;;
28022;SDS011;67403;50.104;8.758;2023-02-13T12:12:54;6.93;;;4.93;;
28022;SDS011;67403;50.104;8.758;2023-02-13T12:15:24;6.00;;;4.95;;
28022;SDS011;67403;50.104;8.758;2023-02-13T12:17:56;6.93;;;4.45;;
28022;SDS011;67403;50.104;8.758;2023-02-13T12:20:32;6.88;;;5.55;;
28022;SDS011;67403;50.104;8.758;2023-02-13T12:23:08;5.20;;;4.38;;
28022;SDS011;67403;50.104;8.758;2023-02-13T12:25:57;8.13;;;5.28;;
28022;SDS011;67403;50.104;8.758;2023-02-13T12:28:37;6.82;;;4.28;;
28022;SDS011;67403;50.104;8.758;2023-02-13T12:31:28;5.85;;;4.50;;
28022;SDS011;67403;50.104;8.758;2023-02-13T12:34:27;6.38;;;4.57;;
28022;SDS011;67403;50.104;8.758;2023-02-13T12:37:14;4.93;;;4.28;;
28022;SDS011;67403;50.104;8.758;2023-02-13T12:39:53;6.07;;;4.80;;
28022;SDS011;67403;50.104;8.758;2023-02-13T12:42:36;5.63;;;4.30;;
28022;SDS011;67403;50.104;8.758;2023-02-13T12:45:13;5.53;;;4.18;;
28022;SDS011;67403;50.104;8.758;2023-02-13T12:47:50;4.05;;;3.50;;
28022;SDS011;67403;50.104;8.758;2023-02-13T12:50:34;5.38;;;4.53;;
28022;SDS011;67403;50.104;8.758;2023-02-13T12:53:24;6.00;;;4.10;;
28022;SDS011;67403;50.104;8.758;2023-02-13T12:56:10;5.63;;;4.53;;
28022;SDS011;67403;50.104;8.758;2023-02-13T12:58:51;5.20;;;4.30;;
28022;SDS011;67403;50.104;8.758;2023-02-13T13:01:32;5.80;;;4.97;;
28022;SDS011;67403;50.104;8.758;2023-02-13T13:04:13;5.35;;;3.92;;
28022;SDS011;67403;50.104;8.758;2023-02-13T13:06:52;5.28;;;4.40;;
28022;SDS011;67403;50.104;8.758;2023-02-13T13:09:59;5.50;;;4.35;;
28022;SDS011;67403;50.104;8.758;2023-02-13T13:12:43;5.75;;;4.60;;
28022;SDS011;67403;50.104;8.758;2023-02-13T13:15:21;4.97;;;4.20;;
28022;SDS011;67403;50.104;8.758;2023-02-13T13:17:57;3.85;;;3.45;;
28022;SDS011;67403;50.104;8.758;2023-02-13T13:20:46;4.50;;;3.05;;
28022;SDS011;67403;50.104;8.758;2023-02-13T13:23:20;3.72;;;2.72;;
28022;SDS011;67403;50.104;8.758;2023-02-13T13:25:56;3.63;;;2.80;;
28022;SDS011;67403;50.104;8.758;2023-02-13T13:28:36;2.95;;;2.65;;
28022;SDS011;67403;50.104;8.758;2023-02-13T13:31:05;4.30;;;2.88;;
28022;SDS011;67403;50.104;8.758;2023-02-13T13:33:33;3.03;;;2.72;;
28022;SDS011;67403;50.104;8.758;2023-02-13T13:36:06;3.42;;;2.60;;
28022;SDS011;67403;50.104;8.758;2023-02-13T13:38:42;3.38;;;2.60;;
28022;SDS011;67403;50.104;8.758;2023-02-13T13:41:17;3.50;;;3.10;;
28022;SDS011;67403;50.104;8.758;2023-02-13T13:43:59;3.20;;;2.90;;
28022;SDS011;67403;50.104;8.758;2023-02-13T13:46:37;3.83;;;2.72;;
28022;SDS011;67403;50.104;8.758;2023-02-13T13:49:17;3.88;;;3.25;;
28022;SDS011;67403;50.104;8.758;2023-02-13T13:52:07;3.90;;;2.88;;
28022;SDS011;67403;50.104;8.758;2023-02-13T13:54:35;3.67;;;2.95;;
28022;SDS011;67403;50.104;8.758;2023-02-13T13:57:06;4.78;;;3.10;;
28022;SDS011;67403;50.104;8.758;2023-02-13T14:02:44;3.60;;;3.22;;
28022;SDS011;67403;50.104;8.758;2023-02-13T14:11:31;4.05;;;3.60;;
28022;SDS011;67403;50.104;8.758;2023-02-13T14:14:01;4.35;;;3.80;;
28022;SDS011;67403;50.104;8.758;2023-02-13T14:16:49;4.97;;;3.63;;
28022;SDS011;67403;50.104;8.758;2023-02-13T14:19:24;4.35;;;3.78;;
28022;SDS011;67403;50.104;8.758;2023-02-13T14:21:55;4.43;;;3.58;;
28022;SDS011;67403;50.104;8.758;2023-02-13T14:24:57;4.03;;;3.50;;
28022;SDS011;67403;50.104;8.758;2023-02-13T14:27:26;6.68;;;3.38;;
28022;SDS011;67403;50.104;8.758;2023-02-13T14:29:55;3.75;;;3.40;;
28022;SDS011;67403;50.104;8.758;2023-02-13T14:32:24;5.45;;;3.72;;
28022;SDS011;67403;50.104;8.758;2023-02-13T14:34:58;3.58;;;3.08;;
28022;SDS011;67403;50.104;8.758;2023-02-13T14:37:29;4.45;;;3.63;;
28022;SDS011;67403;50.104;8.758;2023-02-13T14:40:26;5.43;;;3.75;;
28022;SDS011;67403;50.104;8.758;2023-02-13T14:43:18;4.90;;;3.90;;
28022;SDS011;67403;50.104;8.758;2023-02-13T14:48:50;6.65;;;3.60;;
28022;SDS011;67403;50.104;8.758;2023-02-13T14:51:25;5.25;;;3.47;;
28022;SDS011;67403;50.104;8.758;2023-02-13T14:53:58;4.05;;;3.55;;
28022;SDS011;67403;50.104;8.758;2023-02-13T14:56:29;7.80;;;3.88;;
28022;SDS011;67403;50.104;8.758;2023-02-13T14:59:00;6.03;;;3.92;;
28022;SDS011;67403;50.104;8.758;2023-02-13T15:01:32;5.30;;;3.22;;
28022;SDS011;67403;50.104;8.758;2023-02-13T15:04:04;6.70;;;3.40;;
28022;SDS011;67403;50.104;8.758;2023-02-13T15:06:37;7.60;;;3.40;;
28022;SDS011;67403;50.104;8.758;2023-02-13T15:09:14;4.50;;;3.10;;
28022;SDS011;67403;50.104;8.758;2023-02-13T15:11:47;6.20;;;3.90;;
28022;SDS011;67403;50.104;8.758;2023-02-13T15:14:15;5.57;;;3.80;;
28022;SDS011;67403;50.104;8.758;2023-02-13T15:16:44;4.83;;;3.20;;
28022;SDS011;67403;50.104;8.758;2023-02-13T15:19:14;6.55;;;3.72;;
28022;SDS011;67403;50.104;8.758;2023-02-13T15:21:47;4.80;;;2.92;;
28022;SDS011;67403;50.104;8.758;2023-02-13T15:24:17;5.95;;;3.20;;
28022;SDS011;67403;50.104;8.758;2023-02-13T15:27:01;6.47;;;3.25;;
28022;SDS011;67403;50.104;8.758;2023-02-13T15:29:30;5.82;;;3.47;;
28022;SDS011;67403;50.104;8.758;2023-02-13T15:31:57;5.63;;;3.10;;
28022;SDS011;67403;50.104;8.758;2023-02-13T15:34:26;6.68;;;3.50;;
28022;SDS011;67403;50.104;8.758;2023-02-13T15:36:55;5.22;;;3.45;;
28022;SDS011;67403;50.104;8.758;2023-02-13T15:39:23;4.90;;;3.00;;
28022;SDS011;67403;50.104;8.758;2023-02-13T15:41:52;4.88;;;3.33;;
28022;SDS011;67403;50.104;8.758;2023-02-13T15:44:21;5.20;;;3.50;;